< < Back
Terminal Aerodrome Forecast


Current Version              Previous Versions:   1  2  3  4  5  6  7  8  9  

Terminal Aerodrome Forecast

964
FTUS44 KBMX 190500
TAFBHM
TAF
KBHM 190520Z 1906/2006 02005KT P6SM VCSH OVC050
     FM191300 01010G18KT P6SM SCT050 OVC080
     FM200000 04003KT P6SM SCT030=



Latest METAR

968
SAUS70 KWBC 192000 RRA
MTRBHM
METAR KBHM 191953Z 05010G16KT 010V070 10SM FEW060 24/06 A3011 RMK AO2
SLP190 T02440061


USA.gov is the U.S. government's official web portal to all federal, state and local government web resources and services.